createdAt,value
2022-12-24T00:01:03.790Z,98130.59
2022-12-24T00:03:30.974Z,98136.69
2022-12-24T00:05:58.259Z,98143.65
2022-12-24T00:08:25.313Z,98148.39
2022-12-24T00:10:52.879Z,98151.48
2022-12-24T00:13:20.232Z,98149.20
2022-12-24T00:15:47.210Z,98150.96
2022-12-24T00:18:14.219Z,98146.48
2022-12-24T00:20:41.152Z,98151.83
2022-12-24T00:23:08.132Z,98149.52
2022-12-24T00:25:35.032Z,98151.47
2022-12-24T00:28:01.934Z,98153.20
2022-12-24T00:30:29.038Z,98152.77
2022-12-24T00:32:55.932Z,98146.30
2022-12-24T00:35:22.861Z,98146.33
2022-12-24T00:37:49.769Z,98142.39
2022-12-24T00:40:17.242Z,98141.36
2022-12-24T00:42:44.274Z,98141.27
2022-12-24T00:45:11.831Z,98140.84
2022-12-24T00:47:38.888Z,98133.93
2022-12-24T00:50:06.924Z,98128.00
2022-12-24T00:52:33.909Z,98125.69
2022-12-24T00:55:00.868Z,98124.48
2022-12-24T00:57:27.822Z,98123.63
2022-12-24T00:59:54.731Z,98120.23
2022-12-24T01:02:21.965Z,98119.15
2022-12-24T01:05:07.847Z,98120.00
2022-12-24T01:07:34.827Z,98121.83
2022-12-24T01:10:01.686Z,98120.63
2022-12-24T01:12:28.612Z,98118.09
2022-12-24T01:14:55.534Z,98116.88
2022-12-24T01:17:22.446Z,98114.39
2022-12-24T01:19:49.289Z,98113.27
2022-12-24T01:22:16.128Z,98113.55
2022-12-24T01:24:43.100Z,98111.13
2022-12-24T01:27:09.942Z,98111.09
2022-12-24T01:29:36.887Z,98114.71
2022-12-24T01:32:03.931Z,98118.16
2022-12-24T01:34:31.038Z,98111.09
2022-12-24T01:36:57.868Z,98112.48
2022-12-24T01:39:24.737Z,98109.11
2022-12-24T01:42:10.365Z,98103.65
2022-12-24T01:44:42.154Z,98097.89
2022-12-24T01:47:11.397Z,98099.92
2022-12-24T01:49:42.969Z,98098.45
2022-12-24T01:52:13.239Z,98097.02
2022-12-24T01:55:01.624Z,98098.16
2022-12-24T01:57:32.027Z,98099.56
2022-12-24T02:00:00.935Z,98101.11
2022-12-24T02:02:28.064Z,98102.23
2022-12-24T02:04:59.273Z,98103.52
2022-12-24T02:07:26.163Z,98108.21
2022-12-24T02:10:00.135Z,98107.54
2022-12-24T02:12:27.809Z,98110.05
2022-12-24T02:14:54.675Z,98111.71
2022-12-24T02:17:42.297Z,98108.15
2022-12-24T02:20:31.654Z,98103.54
2022-12-24T02:23:17.321Z,98105.17
2022-12-24T02:26:07.816Z,98102.73
2022-12-24T02:28:56.428Z,98103.84
2022-12-24T02:31:27.657Z,98097.94
2022-12-24T02:34:06.755Z,98093.71
2022-12-24T02:36:40.964Z,98096.36
2022-12-24T02:39:13.157Z,98100.00
2022-12-24T02:42:01.335Z,98097.45
2022-12-24T02:44:29.068Z,98094.94
2022-12-24T02:46:57.001Z,98096.17
2022-12-24T02:49:23.859Z,98094.63
2022-12-24T02:51:50.750Z,98096.54
2022-12-24T02:54:17.632Z,98092.52
2022-12-24T02:57:08.322Z,98094.15
2022-12-24T02:59:55.384Z,98093.29
2022-12-24T03:02:44.646Z,98095.89
2022-12-24T03:05:20.582Z,98095.18
2022-12-24T03:07:59.870Z,98092.54
2022-12-24T03:10:35.910Z,98099.17
2022-12-24T03:13:09.235Z,98096.71
2022-12-24T03:15:36.246Z,98096.40
2022-12-24T03:18:03.122Z,98100.39
2022-12-24T03:20:34.927Z,98103.19
2022-12-24T03:23:01.786Z,98099.59
2022-12-24T03:25:28.629Z,98102.34
2022-12-24T03:27:56.596Z,98103.41
2022-12-24T03:30:23.881Z,98100.65
2022-12-24T03:32:50.830Z,98097.83
2022-12-24T03:35:17.719Z,98099.13
2022-12-24T03:37:45.270Z,98099.36
2022-12-24T03:40:12.584Z,98101.83
2022-12-24T03:42:39.422Z,98108.21
2022-12-24T03:45:06.645Z,98108.48
2022-12-24T03:47:33.589Z,98110.60
2022-12-24T03:50:00.462Z,98108.72
2022-12-24T03:52:27.301Z,98108.42
2022-12-24T03:54:54.275Z,98103.34
2022-12-24T03:57:21.183Z,98100.14
2022-12-24T03:59:48.099Z,98097.77
2022-12-24T04:02:15.075Z,98091.75
2022-12-24T04:04:42.077Z,98087.70
2022-12-24T04:07:09.040Z,98085.95
2022-12-24T04:09:36.060Z,98085.30
2022-12-24T04:12:03.083Z,98084.41
2022-12-24T04:14:29.901Z,98086.17
2022-12-24T04:16:56.789Z,98085.65
2022-12-24T04:19:23.672Z,98086.36
2022-12-24T04:21:50.756Z,98088.48
2022-12-24T04:24:17.658Z,98095.48
2022-12-24T04:26:44.537Z,98093.14
2022-12-24T04:29:11.358Z,98099.06
2022-12-24T04:31:38.342Z,98098.42
2022-12-24T04:34:05.285Z,98098.36
2022-12-24T04:36:32.153Z,98097.95
2022-12-24T04:38:59.071Z,98095.93
2022-12-24T04:41:25.963Z,98096.73
2022-12-24T04:43:53.531Z,98096.29
2022-12-24T04:46:22.270Z,98095.22
2022-12-24T04:48:50.114Z,98087.23
2022-12-24T04:51:17.307Z,98090.38
2022-12-24T04:53:44.415Z,98090.13
2022-12-24T04:56:16.461Z,98088.98
2022-12-24T04:58:43.352Z,98095.24
2022-12-24T05:01:23.829Z,98094.80
2022-12-24T05:03:51.281Z,98096.22
2022-12-24T05:06:23.285Z,98095.85
2022-12-24T05:08:50.248Z,98091.70
2022-12-24T05:11:17.260Z,98086.64
2022-12-24T05:13:47.563Z,98085.98
2022-12-24T05:16:15.821Z,98086.66
2022-12-24T05:18:42.875Z,98084.06
2022-12-24T05:21:20.193Z,98077.45
2022-12-24T05:24:05.787Z,98072.70
2022-12-24T05:26:35.768Z,98072.69
2022-12-24T05:29:03.645Z,98069.92
2022-12-24T05:31:31.589Z,98066.44
2022-12-24T05:33:58.477Z,98064.99
2022-12-24T05:36:25.421Z,98064.70
2022-12-24T05:38:52.474Z,98066.79
2022-12-24T05:41:19.593Z,98063.88
2022-12-24T05:43:46.512Z,98063.09
2022-12-24T05:46:14.970Z,98064.75
2022-12-24T05:48:41.864Z,98068.05
2022-12-24T05:51:10.633Z,98065.27
2022-12-24T05:53:37.581Z,98070.14
2022-12-24T05:56:12.453Z,98072.64
2022-12-24T05:58:39.846Z,98077.75
2022-12-24T06:01:07.009Z,98083.46
2022-12-24T06:03:34.324Z,98083.52
2022-12-24T06:06:05.348Z,98084.39
2022-12-24T06:08:32.440Z,98091.21
2022-12-24T06:11:00.526Z,98090.09
2022-12-24T06:13:27.497Z,98093.77
2022-12-24T06:15:55.748Z,98092.39
2022-12-24T06:18:23.171Z,98096.75
2022-12-24T06:20:51.893Z,98096.52
2022-12-24T06:23:18.990Z,98095.74
2022-12-24T06:25:46.515Z,98096.56
2022-12-24T06:28:13.809Z,98093.55
2022-12-24T06:30:41.165Z,98093.88
2022-12-24T06:33:08.160Z,98094.64
2022-12-24T06:35:36.224Z,98094.83
2022-12-24T06:38:03.215Z,98099.09
2022-12-24T06:40:30.244Z,98098.27
2022-12-24T06:42:57.258Z,98104.46
2022-12-24T06:45:24.833Z,98111.80
2022-12-24T06:47:52.096Z,98118.12
2022-12-24T06:50:19.124Z,98124.21
2022-12-24T06:52:46.221Z,98125.80
2022-12-24T06:55:13.257Z,98128.02
2022-12-24T06:57:40.252Z,98128.73
2022-12-24T07:00:08.740Z,98131.91
2022-12-24T07:02:35.890Z,98132.48
2022-12-24T07:05:02.996Z,98135.59
2022-12-24T07:07:30.037Z,98132.80
2022-12-24T07:09:57.061Z,98133.37
2022-12-24T07:12:24.082Z,98136.91
2022-12-24T07:14:51.074Z,98139.15
2022-12-24T07:17:18.820Z,98146.38
2022-12-24T07:19:46.378Z,98146.16
2022-12-24T07:22:15.792Z,98149.43
2022-12-24T07:25:03.504Z,98141.20
2022-12-24T07:27:31.884Z,98132.98
2022-12-24T07:30:01.165Z,98130.55
2022-12-24T07:32:31.160Z,98132.09
2022-12-24T07:35:00.382Z,98140.06
2022-12-24T07:37:29.196Z,98138.59
2022-12-24T07:39:59.161Z,98133.80
2022-12-24T07:42:28.950Z,98131.80
2022-12-24T07:44:58.571Z,98133.02
2022-12-24T07:47:27.655Z,98131.58
2022-12-24T07:49:57.205Z,98129.31
2022-12-24T07:52:26.210Z,98124.84
2022-12-24T07:54:55.181Z,98127.79
2022-12-24T07:57:23.640Z,98128.58
2022-12-24T07:59:53.696Z,98130.30
2022-12-24T08:02:23.936Z,98132.42
2022-12-24T08:04:54.586Z,98135.73
2022-12-24T08:07:24.221Z,98139.77
2022-12-24T08:10:14.632Z,98141.91
2022-12-24T08:12:43.678Z,98139.14
2022-12-24T08:15:13.250Z,98144.96
2022-12-24T08:17:42.134Z,98141.74
2022-12-24T08:20:11.867Z,98143.07
2022-12-24T08:22:41.257Z,98144.93
2022-12-24T08:25:10.476Z,98145.23
2022-12-24T08:35:52.770Z,98130.23
2022-12-24T08:38:20.872Z,98131.38
2022-12-24T08:40:52.256Z,98132.35
2022-12-24T08:43:19.239Z,98132.65
2022-12-24T08:45:47.199Z,98135.08
2022-12-24T08:48:14.146Z,98139.44
2022-12-24T08:50:41.702Z,98143.58
2022-12-24T08:53:09.366Z,98152.04
2022-12-24T08:55:36.603Z,98153.05
2022-12-24T08:58:03.673Z,98156.36
2022-12-24T09:00:30.709Z,98149.73
2022-12-24T09:02:58.091Z,98145.76
2022-12-24T09:05:26.248Z,98142.91
2022-12-24T09:07:53.166Z,98142.61
2022-12-24T09:10:20.014Z,98148.17
2022-12-24T09:12:47.904Z,98147.50
2022-12-24T09:15:15.002Z,98144.50
2022-12-24T09:17:42.224Z,98141.05
2022-12-24T09:20:09.959Z,98140.90
2022-12-24T09:22:38.150Z,98150.16
2022-12-24T09:27:54.464Z,98149.64
2022-12-24T09:30:21.559Z,98151.33
2022-12-24T09:32:48.662Z,98149.59
2022-12-24T09:35:15.689Z,98145.03
2022-12-24T09:37:42.636Z,98140.52
2022-12-24T09:40:37.835Z,98134.41
2022-12-24T09:43:31.918Z,98138.67
2022-12-24T09:45:58.798Z,98143.61
2022-12-24T09:48:28.888Z,98143.58
2022-12-24T09:51:02.573Z,98141.52
2022-12-24T09:53:57.332Z,98143.36
2022-12-24T09:56:33.955Z,98144.40
2022-12-24T09:59:02.464Z,98142.55
2022-12-24T10:01:30.563Z,98143.45
2022-12-24T10:04:09.975Z,98140.10
2022-12-24T10:06:43.572Z,98140.19
2022-12-24T10:09:20.940Z,98136.55
2022-12-24T10:11:54.695Z,98139.38
2022-12-24T10:14:30.935Z,98138.17
2022-12-24T10:17:23.421Z,98136.31
2022-12-24T10:20:15.517Z,98138.64
2022-12-24T10:23:24.927Z,98139.79
2022-12-24T10:26:10.410Z,98140.95
2022-12-24T10:28:48.007Z,98142.04
2022-12-24T10:31:15.324Z,98141.86
2022-12-24T10:33:44.891Z,98145.07
2022-12-24T10:36:17.547Z,98148.04
2022-12-24T10:38:45.709Z,98149.42
2022-12-24T10:41:13.689Z,98152.71
2022-12-24T10:43:42.564Z,98152.66
2022-12-24T10:46:20.184Z,98155.65
2022-12-24T10:49:00.935Z,98159.15
2022-12-24T10:51:40.984Z,98154.70
2022-12-24T10:54:18.336Z,98154.16
2022-12-24T10:56:50.696Z,98156.42
2022-12-24T10:59:39.806Z,98159.11
2022-12-24T11:02:32.137Z,98157.52
2022-12-24T11:05:00.373Z,98151.35
2022-12-24T11:07:28.659Z,98151.60
2022-12-24T11:10:04.452Z,98147.64
2022-12-24T11:12:33.238Z,98148.75
2022-12-24T11:15:08.098Z,98151.83
2022-12-24T11:17:35.032Z,98152.91
2022-12-24T11:20:03.592Z,98150.52
2022-12-24T11:22:31.554Z,98157.53
2022-12-24T11:25:03.358Z,98156.52
2022-12-24T11:27:51.742Z,98159.48
2022-12-24T11:30:31.180Z,98159.66
2022-12-24T11:33:01.237Z,98158.82
2022-12-24T11:35:29.499Z,98161.44
2022-12-24T11:38:03.304Z,98156.23
2022-12-24T11:43:25.431Z,98156.80
2022-12-24T11:45:56.511Z,98160.64
2022-12-24T11:48:29.705Z,98168.17
2022-12-24T11:51:06.571Z,98168.79
2022-12-24T11:53:55.934Z,98169.74
2022-12-24T11:56:31.587Z,98165.98
2022-12-24T11:59:02.659Z,98162.67
2022-12-24T12:01:51.230Z,98164.97
2022-12-24T12:04:23.038Z,98166.79
2022-12-24T12:07:15.435Z,98171.16
2022-12-24T12:09:56.682Z,98174.08
2022-12-24T12:12:26.477Z,98175.04
2022-12-24T12:15:01.093Z,98178.41
2022-12-24T12:17:40.998Z,98180.48
2022-12-24T12:20:25.188Z,98181.94
2022-12-24T12:23:29.082Z,98182.66
2022-12-24T12:26:13.135Z,98179.79
2022-12-24T12:28:50.225Z,98179.70
2022-12-24T12:31:37.210Z,98181.98
2022-12-24T12:34:08.015Z,98185.70
2022-12-24T12:36:39.658Z,98187.67
2022-12-24T12:39:06.675Z,98185.38
2022-12-24T12:41:37.962Z,98184.94
2022-12-24T12:44:43.476Z,98186.14
2022-12-24T12:47:26.008Z,98188.79
2022-12-24T12:50:14.850Z,98193.58
2022-12-24T12:53:00.434Z,98192.70
2022-12-24T12:55:58.659Z,98184.78
2022-12-24T12:58:37.877Z,98188.98
2022-12-24T13:01:32.547Z,98192.11
2022-12-24T13:04:15.991Z,98193.98
2022-12-24T13:07:08.624Z,98195.29
2022-12-24T13:09:58.199Z,98198.39
2022-12-24T13:12:31.396Z,98200.45
2022-12-24T13:15:04.999Z,98199.02
2022-12-24T13:18:01.376Z,98202.92
2022-12-24T13:20:29.901Z,98206.12
2022-12-24T13:22:56.760Z,98205.52
2022-12-24T13:25:35.248Z,98206.48
2022-12-24T13:28:35.196Z,98210.06
2022-12-24T13:31:02.123Z,98213.64
2022-12-24T13:33:38.832Z,98213.98
2022-12-24T13:36:18.775Z,98216.92
2022-12-24T13:38:58.449Z,98218.40
2022-12-24T13:41:41.135Z,98214.81
2022-12-24T13:44:13.294Z,98217.35
2022-12-24T13:46:47.779Z,98214.61
2022-12-24T13:49:22.406Z,98215.60
2022-12-24T13:51:51.096Z,98217.02
2022-12-24T13:54:21.021Z,98215.05
2022-12-24T13:56:47.953Z,98217.53
2022-12-24T13:59:39.020Z,98217.89
2022-12-24T14:02:06.542Z,98220.98
2022-12-24T14:04:35.397Z,98222.19
2022-12-24T14:07:03.817Z,98224.11
2022-12-24T14:09:31.062Z,98226.41
2022-12-24T14:12:04.230Z,98228.64
2022-12-24T14:14:38.942Z,98228.02
2022-12-24T14:17:18.490Z,98234.34
2022-12-24T14:19:48.022Z,98243.02
2022-12-24T14:22:29.901Z,98244.41
2022-12-24T14:24:59.002Z,98249.73
2022-12-24T14:27:34.017Z,98252.70
2022-12-24T14:30:20.951Z,98257.27
2022-12-24T14:32:49.116Z,98257.84
2022-12-24T14:35:20.470Z,98255.76
2022-12-24T14:37:49.696Z,98254.79
2022-12-24T14:40:18.920Z,98258.11
2022-12-24T14:43:13.661Z,98256.29
2022-12-24T14:45:44.512Z,98254.44
2022-12-24T14:48:26.085Z,98263.89
2022-12-24T14:51:18.448Z,98265.38
2022-12-24T14:53:54.129Z,98265.05
2022-12-24T14:56:22.646Z,98266.21
2022-12-24T14:58:50.029Z,98270.28
2022-12-24T15:01:43.626Z,98277.59
2022-12-24T15:04:10.689Z,98279.85
2022-12-24T15:06:49.598Z,98282.23
2022-12-24T15:09:20.441Z,98286.96
2022-12-24T15:11:49.057Z,98292.83
2022-12-24T15:14:16.689Z,98291.59
2022-12-24T15:16:44.165Z,98294.51
2022-12-24T15:19:22.878Z,98299.33
2022-12-24T15:21:49.961Z,98297.52
2022-12-24T15:24:37.539Z,98295.64
2022-12-24T15:27:17.149Z,98301.18
2022-12-24T15:29:45.408Z,98303.52
2022-12-24T15:32:19.354Z,98300.89
2022-12-24T15:34:47.962Z,98303.29
2022-12-24T15:37:21.196Z,98302.61
2022-12-24T15:40:27.049Z,98302.56
2022-12-24T15:42:56.009Z,98306.80
2022-12-24T15:45:29.983Z,98306.34
2022-12-24T15:47:59.566Z,98310.06
2022-12-24T15:50:32.655Z,98308.05
2022-12-24T15:53:19.906Z,98310.52
2022-12-24T15:56:06.600Z,98314.97
2022-12-24T15:58:35.803Z,98313.27
2022-12-24T16:01:08.778Z,98312.08
2022-12-24T16:03:37.891Z,98310.67
2022-12-24T16:06:11.941Z,98306.34
2022-12-24T16:11:25.617Z,98309.31
2022-12-24T16:14:07.842Z,98315.44
2022-12-24T16:16:37.516Z,98318.61
2022-12-24T16:19:06.304Z,98316.30
2022-12-24T16:21:36.334Z,98321.23
2022-12-24T16:24:21.252Z,98325.27
2022-12-24T16:26:48.470Z,98329.45
2022-12-24T16:29:15.983Z,98326.41
2022-12-24T16:31:56.423Z,98332.20
2022-12-24T16:34:30.009Z,98330.52
2022-12-24T16:36:57.396Z,98328.66
2022-12-24T16:39:30.950Z,98327.29
2022-12-24T16:42:18.196Z,98328.36
2022-12-24T16:44:45.231Z,98333.98
2022-12-24T16:47:22.816Z,98336.38
2022-12-24T16:49:49.943Z,98341.33
2022-12-24T16:52:21.539Z,98340.61
2022-12-24T16:54:49.478Z,98349.70
2022-12-24T16:57:17.522Z,98349.39
2022-12-24T16:59:44.592Z,98357.96
2022-12-24T17:02:17.250Z,98363.29
2022-12-24T17:04:44.512Z,98365.09
2022-12-24T17:07:12.707Z,98368.11
2022-12-24T17:09:39.645Z,98369.89
2022-12-24T17:12:06.865Z,98373.24
2022-12-24T17:14:33.927Z,98370.75
2022-12-24T17:17:01.226Z,98375.23
2022-12-24T17:39:27.963Z,98388.68
2022-12-24T17:41:55.234Z,98388.76
2022-12-24T17:44:22.246Z,98390.09
2022-12-24T17:46:49.565Z,98398.05
2022-12-24T17:49:16.551Z,98396.86
2022-12-24T17:51:45.922Z,98397.02
2022-12-24T17:54:13.511Z,98397.88
2022-12-24T17:56:40.763Z,98403.80
2022-12-24T17:59:07.668Z,98398.19
2022-12-24T18:01:34.764Z,98404.13
2022-12-24T18:04:02.920Z,98409.09
2022-12-24T18:06:30.081Z,98410.48
2022-12-24T18:08:57.226Z,98411.97
2022-12-24T18:11:33.057Z,98411.02
2022-12-24T18:14:01.383Z,98414.35
2022-12-24T18:16:33.714Z,98417.48
2022-12-24T18:19:01.186Z,98418.29
2022-12-24T18:21:30.234Z,98423.63
2022-12-24T18:23:57.727Z,98421.22
2022-12-24T18:26:26.679Z,98421.98
2022-12-24T18:28:54.654Z,98427.21
2022-12-24T18:31:21.830Z,98428.05
2022-12-24T18:36:31.223Z,98435.80
2022-12-24T18:38:58.186Z,98440.33
2022-12-24T18:41:27.439Z,98446.61
2022-12-24T18:43:54.621Z,98448.73
2022-12-24T18:46:23.966Z,98450.09
2022-12-24T18:49:11.968Z,98447.78
2022-12-24T18:51:38.845Z,98447.91
2022-12-24T18:54:06.068Z,98445.63
2022-12-24T18:56:33.372Z,98451.20
2022-12-24T18:59:02.071Z,98454.90
2022-12-24T19:01:31.278Z,98457.70
2022-12-24T19:03:58.704Z,98459.70
2022-12-24T19:06:25.741Z,98459.58
2022-12-24T19:09:01.698Z,98462.23
2022-12-24T19:11:30.966Z,98465.19
2022-12-24T19:13:58.382Z,98466.17
2022-12-24T19:16:26.248Z,98474.88
2022-12-24T19:18:53.925Z,98475.11
2022-12-24T19:21:21.034Z,98478.61
2022-12-24T19:23:48.098Z,98478.09
2022-12-24T19:26:16.270Z,98486.24
2022-12-24T19:28:43.259Z,98486.93
2022-12-24T19:31:12.443Z,98488.30
2022-12-24T19:33:43.143Z,98486.73
2022-12-24T19:36:13.575Z,98489.95
2022-12-24T19:38:40.637Z,98496.17
2022-12-24T19:41:09.006Z,98500.10
2022-12-24T19:43:56.301Z,98499.45
2022-12-24T19:46:25.431Z,98500.41
2022-12-24T19:48:57.577Z,98505.54
2022-12-24T19:51:25.446Z,98504.31
2022-12-24T19:53:53.652Z,98508.83
2022-12-24T19:56:21.886Z,98515.52
2022-12-24T19:58:49.148Z,98518.28
2022-12-24T20:01:23.612Z,98518.44
2022-12-24T20:03:51.341Z,98524.12
2022-12-24T20:06:20.605Z,98525.35
2022-12-24T20:08:48.450Z,98530.19
2022-12-24T20:11:19.135Z,98530.63
2022-12-24T20:13:46.544Z,98534.05
2022-12-24T20:16:17.903Z,98537.70
2022-12-24T20:18:51.233Z,98540.09
2022-12-24T20:21:18.286Z,98539.40
2022-12-24T20:23:45.334Z,98542.66
2022-12-24T20:26:14.343Z,98546.94
2022-12-24T20:28:41.745Z,98550.01
2022-12-24T20:31:16.161Z,98555.40
2022-12-24T20:33:43.672Z,98554.52
2022-12-24T20:36:11.338Z,98556.11
2022-12-24T20:38:39.315Z,98556.23
2022-12-24T20:41:14.887Z,98555.73
2022-12-24T20:44:59.193Z,98553.15
2022-12-24T20:47:26.438Z,98555.95
2022-12-24T20:49:53.385Z,98558.71
2022-12-24T20:52:20.469Z,98558.95
2022-12-24T20:54:47.400Z,98558.09
2022-12-24T20:57:14.295Z,98554.40
2022-12-24T20:59:41.476Z,98554.80
2022-12-24T21:02:13.155Z,98553.70
2022-12-24T21:04:40.339Z,98552.53
2022-12-24T21:07:07.447Z,98552.13
2022-12-24T21:09:34.279Z,98551.42
2022-12-24T21:12:24.253Z,98554.16
2022-12-24T21:14:51.231Z,98548.63
2022-12-24T21:17:18.304Z,98547.34
2022-12-24T21:19:45.393Z,98551.02
2022-12-24T21:22:12.355Z,98551.19
2022-12-24T21:24:39.898Z,98556.71
2022-12-24T21:27:06.799Z,98559.09
2022-12-24T21:29:33.708Z,98558.96
2022-12-24T21:32:00.607Z,98562.75
2022-12-24T21:34:27.578Z,98556.77
2022-12-24T21:36:55.024Z,98559.60
2022-12-24T21:39:22.075Z,98565.16
2022-12-24T21:41:49.226Z,98567.17
2022-12-24T21:44:16.215Z,98572.39
2022-12-24T21:46:43.221Z,98575.86
2022-12-24T21:49:28.877Z,98582.48
2022-12-24T21:51:55.848Z,98585.09
2022-12-24T21:54:30.793Z,98590.80
2022-12-24T21:57:24.813Z,98592.17
2022-12-24T21:59:52.913Z,98596.17
2022-12-24T22:02:20.904Z,98593.58
2022-12-24T22:04:47.944Z,98592.59
2022-12-24T22:10:26.317Z,98601.98
2022-12-24T22:12:53.938Z,98606.14
2022-12-24T22:15:21.412Z,98608.65
2022-12-24T22:17:48.363Z,98609.05
2022-12-24T22:20:15.280Z,98611.04
2022-12-24T22:22:42.272Z,98612.16
2022-12-24T22:25:09.191Z,98609.99
2022-12-24T22:27:36.227Z,98611.29
2022-12-24T22:30:03.300Z,98615.95
2022-12-24T22:32:30.201Z,98615.19
2022-12-24T22:34:57.673Z,98617.46
2022-12-24T22:37:24.561Z,98624.81
2022-12-24T22:39:51.565Z,98630.07
2022-12-24T22:42:18.434Z,98633.27
2022-12-24T22:44:47.911Z,98631.81
2022-12-24T22:47:14.886Z,98635.15
2022-12-24T22:49:41.812Z,98639.43
2022-12-24T22:52:09.397Z,98642.63
2022-12-24T22:54:36.397Z,98646.15
2022-12-24T22:57:03.449Z,98646.98
2022-12-24T22:59:30.325Z,98653.41
2022-12-24T23:01:58.245Z,98653.70
2022-12-24T23:04:26.325Z,98658.00
2022-12-24T23:06:53.223Z,98659.96
2022-12-24T23:09:20.229Z,98662.46
2022-12-24T23:11:47.232Z,98667.27
2022-12-24T23:14:35.159Z,98668.98
2022-12-24T23:17:02.092Z,98672.27
2022-12-24T23:19:29.623Z,98674.98
2022-12-24T23:21:56.602Z,98680.52
2022-12-24T23:24:23.599Z,98681.67
2022-12-24T23:26:51.094Z,98682.92
2022-12-24T23:29:18.213Z,98688.89
2022-12-24T23:31:45.203Z,98687.54
2022-12-24T23:34:12.306Z,98688.60
2022-12-24T23:36:39.243Z,98692.24
2022-12-24T23:39:06.133Z,98690.70
2022-12-24T23:41:33.140Z,98688.89
2022-12-24T23:44:00.081Z,98690.23
2022-12-24T23:46:27.271Z,98690.67
2022-12-24T23:48:54.899Z,98691.86
2022-12-24T23:51:24.969Z,98695.65
2022-12-24T23:53:52.887Z,98698.67
2022-12-24T23:56:20.642Z,98698.33
2022-12-24T23:58:47.693Z,98701.63
